Time;durP1;ratioP1;P1;durP2;ratioP2;P2;SDS_P1;SDS_P2;PMS_P1;PMS_P2;Temp;Humidity;BMP_temperature;BMP_pressure;BME280_temperature;BME280_humidity;BME280_pressure;Samples;Min_cycle;Max_cycle;Signal;HPM_P1;HPM_P2
2024/03/29 01:43:39;;;;;;;57.33;3.13;;;;;;;;;;5071109;28;20462;-83
2024/03/29 01:46:07;;;;;;;56.10;2.43;;;;;;;;;;5090898;28;20547;-84
2024/03/29 01:48:35;;;;;;;57.07;2.73;;;;;;;;;;5095593;28;20439;-83
2024/03/29 01:51:03;;;;;;;56.50;2.80;;;;;;;;;;5094503;28;20478;-84
2024/03/29 01:53:30;;;;;;;56.50;3.13;;;;;;;;;;5089476;28;20440;-83
2024/03/29 01:55:58;;;;;;;56.60;2.93;;;;;;;;;;5089970;28;20828;-83
2024/03/29 01:58:27;;;;;;;56.80;2.93;;;;;;;;;;5089437;28;20729;-83
2024/03/29 02:00:56;;;;;;;57.27;2.90;;;;;;;;;;5093762;28;20451;-83
2024/03/29 02:03:23;;;;;;;56.40;2.53;;;;;;;;;;5082557;28;20470;-83
2024/03/29 02:05:51;;;;;;;55.80;2.47;;;;;;;;;;5089925;28;20519;-83
2024/03/29 02:08:18;;;;;;;59.43;2.30;;;;;;;;;;5094852;28;20454;-83
2024/03/29 02:10:47;;;;;;;55.80;2.37;;;;;;;;;;5086116;28;20471;-82
2024/03/29 02:13:14;;;;;;;55.77;2.53;;;;;;;;;;5084584;28;20496;-83
2024/03/29 02:15:42;;;;;;;56.97;2.90;;;;;;;;;;5080771;28;20538;-84
2024/03/29 02:18:10;;;;;;;58.67;2.63;;;;;;;;;;5095903;28;20834;-84
2024/03/29 02:20:38;;;;;;;56.07;2.27;;;;;;;;;;5092443;28;20448;-84
2024/03/29 02:23:12;;;;;;;58.70;3.37;;;;;;;;;;5086021;28;20444;-83
2024/03/29 02:25:41;;;;;;;55.80;2.53;;;;;;;;;;5096944;28;20458;-84
2024/03/29 02:28:08;;;;;;;56.83;2.40;;;;;;;;;;5096553;28;20505;-83
2024/03/29 02:30:35;;;;;;;55.80;2.20;;;;;;;;;;5088050;28;20819;-84
2024/03/29 02:33:03;;;;;;;56.40;2.50;;;;;;;;;;5080543;28;20502;-84
2024/03/29 02:35:30;;;;;;;56.93;2.40;;;;;;;;;;5088385;28;20455;-83
2024/03/29 02:37:57;;;;;;;55.47;2.10;;;;;;;;;;5089058;28;20530;-84
2024/03/29 02:40:25;;;;;;;56.37;2.23;;;;;;;;;;5087978;28;20443;-84
2024/03/29 02:42:53;;;;;;;55.70;2.10;;;;;;;;;;5088649;28;20928;-84
2024/03/29 02:45:20;;;;;;;56.00;2.60;;;;;;;;;;5095012;28;20568;-84
2024/03/29 02:47:47;;;;;;;56.67;2.47;;;;;;;;;;5089965;28;20460;-84
2024/03/29 02:50:14;;;;;;;55.90;2.47;;;;;;;;;;5086767;28;20475;-83
2024/03/29 02:52:41;;;;;;;56.57;2.73;;;;;;;;;;5098970;28;20448;-83
2024/03/29 02:55:07;;;;;;;55.47;2.30;;;;;;;;;;5092646;28;20440;-83
2024/03/29 02:57:35;;;;;;;56.97;2.30;;;;;;;;;;5095585;28;20456;-84
2024/03/29 03:00:03;;;;;;;55.40;2.47;;;;;;;;;;5097000;28;20443;-84
2024/03/29 03:02:30;;;;;;;55.87;2.33;;;;;;;;;;5089303;28;20855;-84
2024/03/29 03:04:56;;;;;;;55.70;2.33;;;;;;;;;;5083208;28;20432;-84
2024/03/29 03:12:53;;;;;;;56.10;2.70;;;;;;;;;;5045592;28;20500;-85
2024/03/29 03:15:22;;;;;;;56.07;2.30;;;;;;;;;;5092223;28;20437;-85
2024/03/29 03:17:48;;;;;;;55.87;2.17;;;;;;;;;;5095280;28;20485;-85
2024/03/29 03:20:16;;;;;;;55.67;2.40;;;;;;;;;;5099581;28;20431;-85
2024/03/29 03:22:42;;;;;;;57.07;2.70;;;;;;;;;;5101828;28;21116;-85
2024/03/29 03:25:10;;;;;;;57.20;2.80;;;;;;;;;;5091671;28;20462;-84
2024/03/29 03:27:36;;;;;;;56.20;2.97;;;;;;;;;;5092796;28;20466;-85
2024/03/29 03:30:03;;;;;;;57.50;2.40;;;;;;;;;;5091264;28;20480;-84
2024/03/29 03:32:31;;;;;;;59.50;2.70;;;;;;;;;;5097111;28;20444;-83
2024/03/29 03:34:58;;;;;;;55.87;2.40;;;;;;;;;;5096833;28;20431;-84
2024/03/29 03:37:24;;;;;;;55.77;2.07;;;;;;;;;;5089839;28;20460;-84
2024/03/29 03:39:52;;;;;;;57.37;1.90;;;;;;;;;;5088100;28;20440;-84
2024/03/29 03:42:18;;;;;;;56.20;2.20;;;;;;;;;;5088362;28;20474;-85
2024/03/29 03:44:45;;;;;;;55.77;2.40;;;;;;;;;;5086396;28;20829;-85
2024/03/29 03:47:11;;;;;;;55.90;2.30;;;;;;;;;;5081759;28;21037;-85
2024/03/29 03:49:40;;;;;;;55.60;1.90;;;;;;;;;;5087886;28;20924;-85
2024/03/29 03:52:06;;;;;;;55.57;1.90;;;;;;;;;;5096897;28;20486;-84
2024/03/29 03:54:34;;;;;;;55.97;2.23;;;;;;;;;;5101073;28;20818;-84
2024/03/29 03:57:00;;;;;;;57.60;2.00;;;;;;;;;;5091256;28;20467;-84
2024/03/29 03:59:27;;;;;;;56.10;2.23;;;;;;;;;;5091450;28;20465;-83
2024/03/29 04:01:54;;;;;;;55.87;2.00;;;;;;;;;;5092248;28;20459;-84
2024/03/29 04:04:21;;;;;;;56.10;2.40;;;;;;;;;;5092638;28;20526;-84
2024/03/29 04:06:49;;;;;;;55.70;2.00;;;;;;;;;;5094699;28;20982;-84
2024/03/29 04:09:17;;;;;;;55.70;1.90;;;;;;;;;;5098274;28;20443;-84
2024/03/29 04:11:43;;;;;;;56.87;3.37;;;;;;;;;;5091645;28;20479;-83
2024/03/29 04:14:11;;;;;;;55.80;2.10;;;;;;;;;;5092222;28;20448;-83
2024/03/29 04:16:37;;;;;;;55.57;2.50;;;;;;;;;;5092381;28;20512;-84
2024/03/29 04:19:04;;;;;;;55.90;2.37;;;;;;;;;;5092232;28;20518;-83
2024/03/29 04:21:30;;;;;;;57.40;2.37;;;;;;;;;;5092137;28;20469;-83
2024/03/29 04:23:59;;;;;;;56.10;2.20;;;;;;;;;;5093313;28;20444;-86
2024/03/29 04:26:25;;;;;;;55.30;2.07;;;;;;;;;;5096501;28;20455;-83
2024/03/29 04:28:52;;;;;;;56.40;2.10;;;;;;;;;;5088739;28;20491;-83
2024/03/29 04:31:19;;;;;;;55.50;2.20;;;;;;;;;;5099143;28;20479;-83
2024/03/29 04:33:46;;;;;;;55.90;2.03;;;;;;;;;;5092430;28;20431;-83
2024/03/29 04:36:12;;;;;;;55.97;1.90;;;;;;;;;;5091071;28;20485;-82
2024/03/29 04:38:39;;;;;;;55.77;2.20;;;;;;;;;;5108409;28;20473;-83
2024/03/29 04:41:08;;;;;;;59.27;4.40;;;;;;;;;;5108193;28;20439;-84
2024/03/29 04:43:35;;;;;;;61.00;4.10;;;;;;;;;;5098433;28;20459;-82
2024/03/29 04:46:05;;;;;;;57.80;2.80;;;;;;;;;;5104107;28;20444;-84
2024/03/29 04:48:32;;;;;;;56.27;2.60;;;;;;;;;;5094963;28;20945;-82
2024/03/29 04:50:59;;;;;;;58.00;2.80;;;;;;;;;;5111103;28;20482;-83
2024/03/29 04:53:27;;;;;;;56.17;2.30;;;;;;;;;;5103476;28;20455;-83
2024/03/29 04:55:57;;;;;;;55.17;1.90;;;;;;;;;;5092381;28;20504;-82
2024/03/29 04:58:26;;;;;;;55.37;2.20;;;;;;;;;;5089602;28;20447;-83
2024/03/29 05:00:54;;;;;;;55.80;2.30;;;;;;;;;;5090110;28;20939;-82
2024/03/29 05:03:25;;;;;;;56.07;2.03;;;;;;;;;;5090638;28;20427;-84
2024/03/29 05:05:52;;;;;;;57.03;3.37;;;;;;;;;;5088899;28;20460;-84
2024/03/29 05:08:21;;;;;;;56.20;2.10;;;;;;;;;;5098104;28;20447;-83
2024/03/29 05:10:49;;;;;;;56.07;2.20;;;;;;;;;;5090960;28;20556;-83
2024/03/29 05:13:17;;;;;;;55.70;2.00;;;;;;;;;;5085969;28;20451;-83
2024/03/29 05:15:45;;;;;;;55.60;1.90;;;;;;;;;;5087714;28;20463;-83
2024/03/29 05:18:13;;;;;;;54.97;2.10;;;;;;;;;;5079054;28;20458;-83
2024/03/29 05:20:41;;;;;;;55.77;2.10;;;;;;;;;;5085803;28;20440;-84
2024/03/29 05:23:08;;;;;;;55.10;2.23;;;;;;;;;;5096000;28;20443;-84
2024/03/29 05:25:35;;;;;;;55.60;1.90;;;;;;;;;;5090733;28;20455;-84
2024/03/29 05:28:03;;;;;;;56.47;2.20;;;;;;;;;;5099550;28;20440;-83
2024/03/29 05:30:30;;;;;;;55.40;2.10;;;;;;;;;;5096380;28;20514;-82
2024/03/29 05:32:59;;;;;;;56.00;1.90;;;;;;;;;;5088558;28;20523;-81
2024/03/29 05:35:26;;;;;;;55.80;2.03;;;;;;;;;;5088174;28;20505;-83
2024/03/29 05:37:54;;;;;;;55.67;1.97;;;;;;;;;;5082610;28;20869;-82
2024/03/29 05:40:25;;;;;;;55.80;2.30;;;;;;;;;;5086612;28;20452;-83
2024/03/29 05:42:53;;;;;;;55.37;2.20;;;;;;;;;;5082869;28;20497;-83
2024/03/29 05:45:25;;;;;;;56.57;2.40;;;;;;;;;;5085843;28;20737;-83
2024/03/29 05:47:52;;;;;;;55.17;2.10;;;;;;;;;;5090795;28;20436;-82
2024/03/29 05:50:21;;;;;;;55.37;2.13;;;;;;;;;;5098763;28;20469;-84
2024/03/29 05:52:48;;;;;;;56.40;2.30;;;;;;;;;;5101459;28;20443;-85
2024/03/29 05:55:15;;;;;;;56.20;2.20;;;;;;;;;;5095017;28;20504;-85
2024/03/29 05:57:44;;;;;;;55.97;2.10;;;;;;;;;;5091929;28;20436;-86
2024/03/29 06:00:13;;;;;;;54.80;2.03;;;;;;;;;;5099664;28;20461;-86
2024/03/29 06:02:40;;;;;;;55.37;1.90;;;;;;;;;;5097210;28;21137;-86
2024/03/29 06:05:08;;;;;;;54.97;2.17;;;;;;;;;;5097141;28;20511;-86
2024/03/29 06:07:37;;;;;;;55.33;2.17;;;;;;;;;;5100718;28;20460;-86
2024/03/29 06:10:05;;;;;;;55.60;1.90;;;;;;;;;;5098999;28;20447;-85
2024/03/29 06:12:32;;;;;;;55.37;2.00;;;;;;;;;;5094733;28;20550;-86
2024/03/29 06:17:40;;;;;;;55.50;2.13;;;;;;;;;;5064572;28;20551;-86
2024/03/29 06:20:09;;;;;;;55.40;1.97;;;;;;;;;;5100145;28;20472;-85
2024/03/29 06:22:37;;;;;;;56.07;2.10;;;;;;;;;;5104194;28;20436;-85
2024/03/29 06:25:05;;;;;;;56.43;2.10;;;;;;;;;;5097018;28;20431;-84
2024/03/29 06:27:33;;;;;;;55.27;2.30;;;;;;;;;;5096828;28;20532;-85
2024/03/29 06:30:00;;;;;;;54.80;2.03;;;;;;;;;;5097881;28;20988;-85
2024/03/29 06:32:27;;;;;;;55.87;2.27;;;;;;;;;;5103111;28;20508;-85
2024/03/29 06:34:55;;;;;;;55.33;1.97;;;;;;;;;;5104787;28;20465;-84
2024/03/29 06:37:24;;;;;;;55.80;2.40;;;;;;;;;;5094349;28;20464;-84
2024/03/29 06:39:53;;;;;;;55.70;2.10;;;;;;;;;;5090060;28;20519;-84
2024/03/29 06:42:21;;;;;;;56.40;2.20;;;;;;;;;;5101970;28;20447;-84
2024/03/29 06:44:48;;;;;;;56.17;2.10;;;;;;;;;;5096932;28;20451;-84
2024/03/29 06:47:15;;;;;;;56.10;1.90;;;;;;;;;;5093849;28;20770;-85
2024/03/29 06:49:43;;;;;;;55.70;2.30;;;;;;;;;;5099241;28;20451;-83
2024/03/29 06:52:10;;;;;;;56.13;2.40;;;;;;;;;;5085742;28;20583;-83
2024/03/29 06:54:37;;;;;;;55.50;2.20;;;;;;;;;;5091095;28;20436;-84
2024/03/29 06:57:06;;;;;;;55.80;2.20;;;;;;;;;;5083017;28;20486;-85
2024/03/29 06:59:33;;;;;;;55.27;2.20;;;;;;;;;;5079662;28;20444;-83
2024/03/29 07:02:01;;;;;;;55.90;2.30;;;;;;;;;;5095943;28;20545;-83
2024/03/29 07:04:29;;;;;;;55.47;2.10;;;;;;;;;;5092264;28;20450;-83
2024/03/29 07:06:56;;;;;;;56.20;2.13;;;;;;;;;;5094146;28;20474;-83
2024/03/29 07:09:24;;;;;;;55.43;1.93;;;;;;;;;;5101112;28;20478;-83
2024/03/29 07:11:52;;;;;;;55.90;2.47;;;;;;;;;;5090704;28;20473;-83
2024/03/29 07:14:23;;;;;;;55.87;2.47;;;;;;;;;;5088993;28;20463;-83
2024/03/29 07:16:50;;;;;;;56.20;2.40;;;;;;;;;;5092112;28;20464;-83
2024/03/29 07:19:18;;;;;;;55.80;2.17;;;;;;;;;;5092145;28;20923;-84
2024/03/29 07:21:46;;;;;;;55.43;2.10;;;;;;;;;;5087122;28;20464;-83
2024/03/29 07:24:13;;;;;;;55.77;2.20;;;;;;;;;;5096085;28;20431;-83
2024/03/29 07:26:41;;;;;;;55.67;2.10;;;;;;;;;;5091294;28;20467;-83
2024/03/29 07:29:08;;;;;;;56.00;2.10;;;;;;;;;;5100716;28;20445;-84
2024/03/29 07:31:37;;;;;;;56.57;2.30;;;;;;;;;;5088258;28;21059;-84
2024/03/29 07:35:59;;;;;;;55.80;2.20;;;;;;;;;;5109579;27;20601;-68
2024/03/29 07:38:26;;;;;;;55.73;2.17;;;;;;;;;;5097426;28;20467;-68
2024/03/29 07:40:54;;;;;;;55.80;2.40;;;;;;;;;;5088614;28;20465;-67
2024/03/29 07:43:22;;;;;;;58.20;2.60;;;;;;;;;;5070894;28;20939;-67
2024/03/29 07:45:49;;;;;;;58.23;2.70;;;;;;;;;;5068453;28;20446;-66
2024/03/29 07:48:17;;;;;;;56.93;2.73;;;;;;;;;;5085010;28;20995;-66
2024/03/29 07:50:45;;;;;;;58.27;2.47;;;;;;;;;;5088234;28;20538;-67
2024/03/29 07:53:13;;;;;;;56.13;2.77;;;;;;;;;;5088512;28;20469;-67
2024/03/29 07:55:41;;;;;;;56.13;2.73;;;;;;;;;;5088409;28;20482;-67
2024/03/29 07:58:09;;;;;;;56.90;2.73;;;;;;;;;;5088737;28;20471;-66
2024/03/29 08:00:37;;;;;;;55.90;2.67;;;;;;;;;;5087717;28;20451;-67
2024/03/29 08:03:04;;;;;;;56.23;2.67;;;;;;;;;;5088300;28;20451;-67
2024/03/29 08:05:31;;;;;;;59.00;2.90;;;;;;;;;;5088162;28;20453;-67
2024/03/29 08:07:58;;;;;;;56.30;2.77;;;;;;;;;;5088187;28;20467;-67
2024/03/29 08:10:27;;;;;;;56.70;2.63;;;;;;;;;;5087515;28;20447;-67
2024/03/29 08:12:54;;;;;;;58.20;2.80;;;;;;;;;;5087897;28;20453;-66
2024/03/29 08:15:21;;;;;;;60.17;3.80;;;;;;;;;;5087499;28;20578;-67
2024/03/29 08:17:48;;;;;;;56.77;3.10;;;;;;;;;;5088087;28;20467;-67
2024/03/29 08:20:15;;;;;;;56.57;2.97;;;;;;;;;;5087263;28;20943;-67
2024/03/29 08:22:42;;;;;;;57.27;3.03;;;;;;;;;;5087825;28;20523;-67
2024/03/29 08:25:10;;;;;;;56.57;2.43;;;;;;;;;;5087959;28;20475;-67
2024/03/29 08:27:39;;;;;;;57.70;3.10;;;;;;;;;;5087594;28;20467;-67
2024/03/29 08:30:06;;;;;;;57.77;4.10;;;;;;;;;;5087442;28;20452;-66
2024/03/29 08:32:33;;;;;;;55.97;2.90;;;;;;;;;;5087396;28;20951;-67
2024/03/29 08:35:01;;;;;;;59.63;3.40;;;;;;;;;;5087518;28;20491;-66
2024/03/29 08:37:29;;;;;;;61.77;4.30;;;;;;;;;;5087548;28;20558;-67
2024/03/29 08:39:57;;;;;;;56.60;3.40;;;;;;;;;;5087170;28;20463;-67
2024/03/29 08:42:24;;;;;;;57.00;3.27;;;;;;;;;;5087265;28;20447;-67
2024/03/29 08:44:53;;;;;;;56.67;3.20;;;;;;;;;;5087785;28;20785;-66
2024/03/29 08:47:20;;;;;;;57.07;3.70;;;;;;;;;;5073945;28;20475;-67
2024/03/29 08:49:47;;;;;;;58.10;3.10;;;;;;;;;;5073509;28;20452;-67
2024/03/29 08:52:15;;;;;;;59.00;3.40;;;;;;;;;;5073703;28;20454;-66
2024/03/29 08:54:42;;;;;;;57.70;3.50;;;;;;;;;;5073557;28;20494;-66
2024/03/29 08:57:09;;;;;;;58.73;3.30;;;;;;;;;;5073733;28;20456;-66
2024/03/29 08:59:36;;;;;;;57.33;2.80;;;;;;;;;;5071025;28;20486;-66
2024/03/29 09:02:07;;;;;;;56.17;3.40;;;;;;;;;;5072390;28;20456;-66
2024/03/29 09:04:35;;;;;;;57.77;3.77;;;;;;;;;;5073082;28;20444;-67
2024/03/29 09:07:03;;;;;;;57.20;3.43;;;;;;;;;;5073371;28;20452;-67
2024/03/29 09:09:30;;;;;;;59.90;3.60;;;;;;;;;;5072840;28;20493;-67
2024/03/29 09:11:58;;;;;;;59.03;4.27;;;;;;;;;;5073448;28;20811;-67
2024/03/29 09:14:25;;;;;;;58.67;3.30;;;;;;;;;;5073413;28;20519;-67
2024/03/29 09:16:52;;;;;;;58.20;3.50;;;;;;;;;;5073470;28;20542;-67
2024/03/29 09:19:21;;;;;;;58.97;3.90;;;;;;;;;;5072825;28;20473;-67
2024/03/29 09:21:48;;;;;;;57.93;3.90;;;;;;;;;;5073066;28;20528;-67
2024/03/29 09:24:16;;;;;;;59.00;3.90;;;;;;;;;;5073232;28;20444;-67
2024/03/29 09:26:44;;;;;;;57.80;3.97;;;;;;;;;;5073085;28;21012;-67
2024/03/29 09:29:12;;;;;;;59.17;4.17;;;;;;;;;;5072613;28;20471;-67
2024/03/29 09:31:40;;;;;;;57.43;3.57;;;;;;;;;;5072946;28;20455;-67
2024/03/29 09:34:07;;;;;;;60.47;4.07;;;;;;;;;;5072949;28;20809;-67
2024/03/29 09:36:35;;;;;;;58.20;3.53;;;;;;;;;;5072926;28;20444;-67
2024/03/29 09:39:03;;;;;;;57.57;3.30;;;;;;;;;;5067165;28;20856;-67
2024/03/29 09:41:34;;;;;;;58.87;3.53;;;;;;;;;;5052669;28;20953;-67
2024/03/29 09:44:04;;;;;;;57.23;3.50;;;;;;;;;;5053037;28;20869;-67
2024/03/29 09:46:33;;;;;;;56.90;3.60;;;;;;;;;;5052853;28;20828;-67
2024/03/29 09:49:02;;;;;;;56.57;3.40;;;;;;;;;;5052221;28;20502;-68
2024/03/29 09:51:29;;;;;;;57.10;3.23;;;;;;;;;;5052709;28;20452;-67
2024/03/29 09:53:59;;;;;;;57.40;3.60;;;;;;;;;;5052887;28;20445;-67
2024/03/29 09:56:26;;;;;;;57.07;3.83;;;;;;;;;;5052602;28;21008;-67
2024/03/29 09:58:54;;;;;;;57.10;4.07;;;;;;;;;;5055314;28;20972;-67
2024/03/29 10:01:21;;;;;;;59.37;4.50;;;;;;;;;;5072306;28;20454;-68
2024/03/29 10:03:50;;;;;;;57.00;3.90;;;;;;;;;;5072716;28;20451;-68
2024/03/29 10:06:20;;;;;;;59.13;4.20;;;;;;;;;;5072520;28;20992;-68
2024/03/29 10:08:48;;;;;;;58.20;3.90;;;;;;;;;;5071956;28;20498;-68
2024/03/29 10:11:18;;;;;;;59.30;3.87;;;;;;;;;;5072375;28;20452;-68
2024/03/29 10:13:45;;;;;;;57.77;3.63;;;;;;;;;;5072307;28;20530;-68
2024/03/29 10:16:13;;;;;;;57.17;3.13;;;;;;;;;;5072190;28;20483;-68
2024/03/29 10:18:43;;;;;;;57.97;3.60;;;;;;;;;;5072153;28;20471;-68
2024/03/29 10:21:11;;;;;;;56.80;3.67;;;;;;;;;;5072124;28;20933;-68
2024/03/29 10:23:40;;;;;;;58.33;3.57;;;;;;;;;;5071953;28;20791;-68
2024/03/29 10:26:07;;;;;;;60.63;3.50;;;;;;;;;;5072279;28;20538;-68
2024/03/29 10:28:36;;;;;;;59.30;3.97;;;;;;;;;;5071761;28;20475;-68
2024/03/29 10:31:04;;;;;;;59.47;3.90;;;;;;;;;;5071686;28;20444;-68
2024/03/29 10:33:31;;;;;;;56.50;3.10;;;;;;;;;;5071440;28;20448;-68
2024/03/29 10:35:59;;;;;;;59.57;4.17;;;;;;;;;;5071983;28;20498;-68
2024/03/29 10:38:27;;;;;;;56.80;3.20;;;;;;;;;;5071725;28;20991;-68
2024/03/29 10:40:54;;;;;;;58.67;3.60;;;;;;;;;;5071383;28;20447;-68
2024/03/29 10:43:21;;;;;;;57.73;3.70;;;;;;;;;;5055721;28;20449;-66
2024/03/29 10:45:52;;;;;;;58.30;3.43;;;;;;;;;;5052001;28;20445;-67
2024/03/29 10:48:22;;;;;;;57.10;3.87;;;;;;;;;;5051881;28;20493;-67
2024/03/29 10:50:51;;;;;;;56.70;3.50;;;;;;;;;;5051146;28;21026;-68
2024/03/29 10:53:18;;;;;;;59.60;4.60;;;;;;;;;;5051553;28;20460;-67
2024/03/29 10:55:45;;;;;;;57.30;3.70;;;;;;;;;;5051376;28;20573;-67
2024/03/29 10:58:14;;;;;;;56.83;3.33;;;;;;;;;;5051649;28;20471;-68
2024/03/29 11:00:44;;;;;;;57.90;3.20;;;;;;;;;;5051163;28;20515;-68
2024/03/29 11:03:16;;;;;;;59.97;3.27;;;;;;;;;;5051499;28;20813;-67
2024/03/29 11:05:46;;;;;;;57.13;3.30;;;;;;;;;;5053607;28;20872;-67
2024/03/29 11:08:13;;;;;;;56.90;3.10;;;;;;;;;;5071287;28;20467;-67
2024/03/29 11:10:43;;;;;;;57.00;3.60;;;;;;;;;;5070583;28;20448;-67
2024/03/29 11:13:14;;;;;;;57.00;3.20;;;;;;;;;;5071069;28;21023;-67
2024/03/29 11:15:42;;;;;;;56.93;3.27;;;;;;;;;;5071065;28;20488;-68
2024/03/29 11:18:10;;;;;;;56.83;3.40;;;;;;;;;;5071136;28;20482;-67
2024/03/29 11:20:40;;;;;;;60.30;3.90;;;;;;;;;;5070507;28;20448;-66
2024/03/29 11:23:10;;;;;;;57.10;3.50;;;;;;;;;;5071053;28;20451;-66
2024/03/29 11:25:43;;;;;;;56.50;3.47;;;;;;;;;;5071250;28;20440;-67
2024/03/29 11:28:13;;;;;;;57.07;3.30;;;;;;;;;;5071292;28;20471;-67
2024/03/29 11:30:44;;;;;;;56.80;2.77;;;;;;;;;;5070622;28;20941;-66
2024/03/29 11:33:26;;;;;;;57.37;3.50;;;;;;;;;;5070922;28;20828;-66
2024/03/29 11:35:54;;;;;;;61.47;3.50;;;;;;;;;;5071046;28;20483;-66
2024/03/29 11:38:22;;;;;;;58.30;3.50;;;;;;;;;;5071032;28;20497;-67
2024/03/29 11:40:55;;;;;;;57.63;3.30;;;;;;;;;;5070703;28;20547;-66
2024/03/29 11:43:23;;;;;;;57.00;3.40;;;;;;;;;;5070912;28;20440;-67
2024/03/29 11:45:54;;;;;;;57.60;3.07;;;;;;;;;;5070956;28;20825;-67
2024/03/29 11:48:22;;;;;;;56.07;3.00;;;;;;;;;;5071081;28;20531;-67
2024/03/29 11:50:50;;;;;;;56.60;3.10;;;;;;;;;;5070259;28;20455;-66
2024/03/29 11:53:18;;;;;;;56.90;3.20;;;;;;;;;;5062496;28;20905;-66
2024/03/29 11:55:45;;;;;;;57.00;3.33;;;;;;;;;;5070629;28;20488;-67
2024/03/29 11:58:12;;;;;;;57.33;3.50;;;;;;;;;;5070687;28;20472;-67
2024/03/29 12:00:41;;;;;;;57.47;3.20;;;;;;;;;;5070516;28;20448;-67
2024/03/29 12:03:08;;;;;;;58.83;3.63;;;;;;;;;;5070899;28;20775;-67
2024/03/29 12:05:35;;;;;;;57.20;3.40;;;;;;;;;;5070690;28;20448;-67
2024/03/29 12:08:03;;;;;;;58.03;3.47;;;;;;;;;;5070625;28;20463;-66
2024/03/29 12:10:31;;;;;;;57.90;3.20;;;;;;;;;;5070153;28;20762;-66
2024/03/29 12:12:58;;;;;;;56.30;3.00;;;;;;;;;;5070760;28;20447;-66
2024/03/29 12:15:26;;;;;;;56.40;2.73;;;;;;;;;;5070678;28;20488;-66
2024/03/29 12:17:56;;;;;;;56.77;3.10;;;;;;;;;;5070557;28;20470;-66
2024/03/29 12:20:23;;;;;;;58.17;2.83;;;;;;;;;;5070156;28;20454;-66
2024/03/29 12:22:51;;;;;;;56.83;2.93;;;;;;;;;;5073702;28;20462;-66
2024/03/29 12:25:18;;;;;;;56.10;2.47;;;;;;;;;;5074191;28;20448;-67
2024/03/29 12:27:46;;;;;;;56.57;2.90;;;;;;;;;;5074088;28;21013;-67
2024/03/29 12:30:14;;;;;;;56.50;2.70;;;;;;;;;;5074015;28;20448;-67
2024/03/29 12:32:41;;;;;;;56.87;2.90;;;;;;;;;;5073970;28;20815;-67
2024/03/29 12:35:12;;;;;;;56.10;2.50;;;;;;;;;;5073958;28;20452;-67
2024/03/29 12:37:39;;;;;;;56.10;2.67;;;;;;;;;;5073912;28;20468;-66
2024/03/29 12:40:12;;;;;;;57.80;2.87;;;;;;;;;;5073826;28;20444;-67
2024/03/29 12:42:39;;;;;;;57.40;2.40;;;;;;;;;;5073916;28;20447;-67
2024/03/29 12:45:10;;;;;;;56.77;2.80;;;;;;;;;;5074057;28;20460;-67
2024/03/29 12:47:37;;;;;;;56.80;2.73;;;;;;;;;;5073857;28;20479;-67
2024/03/29 12:50:05;;;;;;;56.40;2.63;;;;;;;;;;5073432;28;20536;-67
2024/03/29 12:52:38;;;;;;;56.33;2.93;;;;;;;;;;5073508;28;20929;-67
2024/03/29 12:55:07;;;;;;;56.50;2.90;;;;;;;;;;5073988;28;20551;-67
2024/03/29 12:57:34;;;;;;;56.50;2.70;;;;;;;;;;5073860;28;20463;-67
2024/03/29 13:00:02;;;;;;;57.07;3.17;;;;;;;;;;5073324;28;20470;-67
2024/03/29 13:02:30;;;;;;;56.67;2.50;;;;;;;;;;5065941;28;20441;-67
2024/03/29 13:04:57;;;;;;;55.57;1.93;;;;;;;;;;5053406;28;20820;-67
2024/03/29 13:07:25;;;;;;;57.67;2.43;;;;;;;;;;5053830;28;20453;-67
2024/03/29 13:09:52;;;;;;;57.63;3.03;;;;;;;;;;5053146;28;20452;-67
2024/03/29 13:12:19;;;;;;;56.30;2.20;;;;;;;;;;5053430;28;20852;-67
2024/03/29 13:14:46;;;;;;;55.93;2.27;;;;;;;;;;5053401;28;20468;-67
2024/03/29 13:17:14;;;;;;;56.03;2.33;;;;;;;;;;5053110;28;20480;-68
2024/03/29 13:19:42;;;;;;;55.87;2.10;;;;;;;;;;5052715;28;20550;-66
2024/03/29 13:22:09;;;;;;;55.73;2.20;;;;;;;;;;5053018;28;21025;-68
2024/03/29 13:24:36;;;;;;;55.53;2.00;;;;;;;;;;5053306;28;20455;-67
2024/03/29 13:27:04;;;;;;;55.70;2.20;;;;;;;;;;5053203;28;21011;-67
2024/03/29 13:29:31;;;;;;;56.40;2.30;;;;;;;;;;5060618;28;20448;-67
2024/03/29 13:31:58;;;;;;;55.80;2.10;;;;;;;;;;5072856;28;20443;-67
2024/03/29 13:34:25;;;;;;;55.37;2.00;;;;;;;;;;5073400;28;20457;-68
2024/03/29 13:36:54;;;;;;;56.37;2.50;;;;;;;;;;5073083;28;20493;-68
2024/03/29 13:39:23;;;;;;;56.07;2.37;;;;;;;;;;5072568;28;20481;-66
2024/03/29 13:41:51;;;;;;;56.90;2.93;;;10.00;99.90;;;;;;5072732;28;20861;-66
2024/03/29 13:44:18;;;;;;;55.80;2.30;;;;;;;;;;5072719;28;20490;-66
2024/03/29 13:46:46;;;;;;;55.83;1.90;;;;;;;;;;5073312;28;20546;-67
2024/03/29 13:49:13;;;;;;;55.23;1.80;;;;;;;;;;5072434;28;20535;-68
2024/03/29 13:51:40;;;;;;;56.53;1.80;;;;;;;;;;5072509;28;20954;-67
2024/03/29 13:54:09;;;;;;;56.17;2.20;;;;;;;;;;5072827;28;20609;-68
2024/03/29 13:56:36;;;;;;;55.57;1.90;;;;;;;;;;5072520;28;20482;-67
2024/03/29 13:59:03;;;;;;;56.93;2.20;;;;;;;;;;5071972;28;20481;-68
2024/03/29 14:01:30;;;;;;;56.83;2.40;;;;;;;;;;5072309;28;20450;-67
2024/03/29 14:03:57;;;;;;;55.90;1.93;;;;;;;;;;5072517;28;20825;-67
2024/03/29 14:06:24;;;;;;;55.77;1.83;;;;;;;;;;5072599;28;20442;-67
2024/03/29 14:08:51;;;;;;;55.70;2.07;;;;;;;;;;5071779;28;20471;-67
2024/03/29 14:11:20;;;;;;;55.33;1.60;;;;;;;;;;5072343;28;20935;-67
2024/03/29 14:13:49;;;;;;;55.77;2.17;;;;;;;;;;5072240;28;20542;-66
2024/03/29 14:16:16;;;;;;;55.30;1.80;;;;;;;;;;5072447;28;20864;-67
2024/03/29 14:18:43;;;;;;;55.33;2.00;;;;;;;;;;5071732;28;20462;-67
2024/03/29 14:21:10;;;;;;;55.70;2.00;;;;;;;;;;5072265;28;20450;-67
2024/03/29 14:23:37;;;;;;;55.10;1.70;;;;;;;;;;5072001;28;20451;-67
2024/03/29 14:26:05;;;;;;;56.17;1.80;;;;;;;;;;5072138;28;20444;-67
2024/03/29 14:28:33;;;;;;;56.27;1.93;;;;;;;;;;5072122;28;20466;-67
2024/03/29 14:31:00;;;;;;;55.77;1.90;;;;;;;;;;5071431;28;20443;-67
2024/03/29 14:33:27;;;;;;;56.60;2.07;;;;;;;;;;5071637;28;20453;-68
2024/03/29 14:35:54;;;;;;;55.90;2.43;;;;;;;;;;5071831;28;20818;-67
2024/03/29 14:38:22;;;;;;;55.37;1.90;;;;;;;;;;5071844;28;20465;-67
2024/03/29 14:40:49;;;;;;;55.57;2.00;;;;;;;;;;5071055;28;20506;-66
2024/03/29 14:43:16;;;;;;;55.63;1.67;;;;;;;;;;5071234;28;20939;-68
2024/03/29 14:45:45;;;;;;;55.63;2.13;;;;;;;;;;5071550;28;20982;-67
2024/03/29 14:48:12;;;;;;;55.80;2.07;;;;;;;;;;5072124;28;20660;-68
2024/03/29 14:50:39;;;;;;;56.00;1.93;;;;;;;;;;5071343;28;20455;-67
2024/03/29 14:53:06;;;;;;;56.00;2.10;;;;;;;;;;5067945;28;20787;-67
2024/03/29 14:55:36;;;;;;;56.47;2.03;;;;;;;;;;5052199;28;20509;-67
2024/03/29 14:58:03;;;;;;;56.90;2.17;;;;;;;;;;5052144;28;20580;-67
2024/03/29 15:00:30;;;;;;;58.03;2.50;;;;;;;;;;5051161;28;20458;-67
2024/03/29 15:02:59;;;;;;;55.50;2.10;;;;;;;;;;5051186;28;20522;-67
2024/03/29 15:05:27;;;;;;;57.03;2.23;;;;;;;;;;5066148;28;20445;-68
2024/03/29 15:07:54;;;;;;;55.87;2.17;;;;;;;;;;5071601;28;20465;-67
2024/03/29 15:10:21;;;;;;;55.50;2.00;;;;;;;;;;5071037;28;20464;-67
2024/03/29 15:12:48;;;;;;;55.70;2.03;;;;;;;;;;5071204;28;20455;-67
2024/03/29 15:15:16;;;;;;;56.60;2.20;;;;;;;;;;5071399;28;20447;-67
2024/03/29 15:17:43;;;;;;;56.17;2.23;;;;;;;;;;5071268;28;20488;-67
2024/03/29 15:20:12;;;;;;;57.30;3.20;;;;;;;;;;5070731;28;20554;-67
2024/03/29 15:22:40;;;;;;;56.50;2.90;;;;;;;;;;5071372;28;20444;-67
2024/03/29 15:25:07;;;;;;;57.17;2.70;;;;;;;;;;5063219;28;20497;-69
2024/03/29 15:30:15;;;;;;;56.10;2.47;;;;;;;;;;5070416;28;20523;-69
2024/03/29 15:32:42;;;;;;;55.90;2.23;;;;;;;;;;5070810;28;20886;-69
2024/03/29 15:35:10;;;;;;;55.90;2.33;;;;;;;;;;5071125;28;20447;-69
2024/03/29 15:37:38;;;;;;;57.40;2.27;;;;;;;;;;5071137;28;20487;-69
2024/03/29 15:40:07;;;;;;;55.97;2.20;;;;;;;;;;5062510;28;20797;-66
2024/03/29 15:42:35;;;;;;;56.47;2.80;;;;;;;;;;5070910;28;20928;-68
2024/03/29 15:45:02;;;;;;;57.10;2.37;;;;;;;;;;5070872;28;20494;-67
2024/03/29 15:47:29;;;;;;;56.10;2.43;;;;;;;;;;5070774;28;20490;-67
2024/03/29 15:49:56;;;;;;;56.10;2.63;;;;;;;;;;5051857;28;20798;-67
2024/03/29 15:52:24;;;;;;;55.67;2.03;;;;;;;;;;5050919;28;20445;-67
2024/03/29 15:54:53;;;;;;;55.77;2.20;;;;;;;;;;5050942;28;20444;-68
2024/03/29 15:57:21;;;;;;;56.17;2.50;;;;;;;;;;5068181;28;20503;-67
2024/03/29 15:59:48;;;;;;;56.80;2.70;;;;;;;;;;5074223;28;20448;-67
2024/03/29 16:02:15;;;;;;;56.47;2.20;;;;;;;;;;5074983;28;20455;-67
2024/03/29 16:04:42;;;;;;;57.50;2.60;;;;;;;;;;5074882;28;20517;-67
2024/03/29 16:07:11;;;;;;;56.80;2.50;;;;;;;;;;5074929;28;20446;-67
2024/03/29 16:09:38;;;;;;;57.10;2.80;;;;;;;;;;5074266;28;20454;-67
2024/03/29 16:12:08;;;;;;;57.47;2.90;;;;;;;;;;5074274;28;20450;-67
2024/03/29 16:14:35;;;;;;;56.20;2.70;;;;;;;;;;5074881;28;20451;-67
2024/03/29 16:17:03;;;;;;;56.93;2.40;;;;;;;;;;5074182;28;20490;-67
2024/03/29 16:19:29;;;;;;;56.47;2.57;;;;;;;;;;5074183;28;20758;-67
2024/03/29 16:21:56;;;;;;;56.70;2.50;;;;;;;;;;5074266;28;20447;-67
2024/03/29 16:24:23;;;;;;;56.47;2.57;;;;;;;;;;5074376;28;20533;-67
2024/03/29 16:26:50;;;;;;;59.43;2.60;;;;;;;;;;5073285;28;20451;-68